Time;durP1;ratioP1;P1;durP2;ratioP2;P2;SDS_P1;SDS_P2;PMS_P1;PMS_P2;Temp;Humidity;BMP_temperature;BMP_pressure;BME280_temperature;BME280_humidity;BME280_pressure;Samples;Min_cycle;Max_cycle;Signal;HPM_P1;HPM_P2
2023/07/14 00:01:56;;;;;;;6.00;2.70;;;;;;;;;;5032017;28;20037;-74
2023/07/14 00:04:49;;;;;;;3.47;2.45;;;;;;;;;;5033773;28;20104;-73
2023/07/14 00:07:16;;;;;;;5.05;2.78;;;;;;;;;;5033984;28;20044;-75
2023/07/14 00:09:44;;;;;;;5.45;2.50;;;;;;;;;;5037802;28;20037;-73
2023/07/14 00:12:10;;;;;;;5.07;2.47;;;;;;;;;;5023570;28;20036;-75
2023/07/14 00:14:36;;;;;;;5.85;2.85;;;;;;;;;;5028859;28;20109;-73
2023/07/14 00:17:02;;;;;;;3.17;2.17;;;;;;;;;;5018233;28;20026;-75
2023/07/14 00:19:28;;;;;;;5.22;2.80;;;;;;;;;;5025917;28;20026;-76
2023/07/14 00:21:54;;;;;;;4.93;2.58;;;;;;;;;;5033282;28;20029;-74
2023/07/14 00:24:21;;;;;;;6.05;2.50;;;;;;;;;;5023087;28;20022;-73
2023/07/14 00:26:59;;;;;;;5.65;2.60;;;;;;;;;;5024167;28;20302;-74
2023/07/14 00:29:25;;;;;;;7.78;3.38;;;;;;;;;;5026140;28;20506;-73
2023/07/14 00:31:51;;;;;;;7.28;2.72;;;;;;;;;;5038680;28;20369;-74
2023/07/14 00:34:17;;;;;;;4.53;2.97;;;;;;;;;;5023369;28;20030;-74
2023/07/14 00:36:43;;;;;;;4.50;2.33;;;;;;;;;;5023598;28;20035;-74
2023/07/14 00:39:09;;;;;;;6.85;3.28;;;;;;;;;;5022387;28;20044;-75
2023/07/14 00:41:36;;;;;;;6.07;2.63;;;;;;;;;;5020534;28;20099;-74
2023/07/14 00:44:02;;;;;;;5.55;3.00;;;;;;;;;;5028579;28;20036;-74
2023/07/14 00:46:29;;;;;;;4.40;2.50;;;;;;;;;;5022072;28;20044;-74
2023/07/14 00:49:00;;;;;;;4.80;2.70;;;;;;;;;;5023412;28;20536;-73
2023/07/14 00:51:27;;;;;;;4.47;3.13;;;;;;;;;;5023853;28;20029;-73
2023/07/14 00:53:54;;;;;;;3.42;2.50;;;;;;;;;;5022623;28;20030;-74
2023/07/14 00:56:33;;;;;;;3.88;2.83;;;;;;;;;;5040631;28;20545;-74
2023/07/14 00:58:59;;;;;;;4.63;2.28;;;;;;;;;;5026988;28;20076;-74
2023/07/14 01:01:25;;;;;;;6.97;2.92;;;;;;;;;;5024888;28;20040;-74
2023/07/14 01:03:58;;;;;;;5.65;3.38;;;;;;;;;;5020664;28;20033;-73
2023/07/14 01:06:26;;;;;;;4.15;2.55;;;;;;;;;;5023712;28;20582;-73
2023/07/14 01:08:57;;;;;;;4.07;2.38;;;;;;;;;;5023729;28;20049;-73
2023/07/14 01:11:29;;;;;;;5.20;2.70;;;;;;;;;;5035467;28;20038;-73
2023/07/14 01:13:56;;;;;;;4.95;2.47;;;;;;;;;;5021706;28;20056;-74
2023/07/14 01:16:22;;;;;;;3.42;2.35;;;;;;;;;;5023923;28;20567;-73
2023/07/14 01:18:48;;;;;;;3.13;2.25;;;;;;;;;;5026450;28;20476;-74
2023/07/14 01:21:16;;;;;;;3.80;2.88;;;;;;;;;;5019103;28;20536;-74
2023/07/14 01:24:00;;;;;;;4.45;2.22;;;;;;;;;;5034058;28;20069;-74
2023/07/14 01:26:41;;;;;;;6.13;2.33;;;;;;;;;;5022734;28;20060;-74
2023/07/14 01:29:08;;;;;;;6.00;2.60;;;;;;;;;;5018944;28;20057;-74
2023/07/14 01:31:35;;;;;;;6.18;2.33;;;;;;;;;;5015964;28;20030;-74
2023/07/14 01:34:02;;;;;;;6.85;2.47;;;;;;;;;;5025079;28;20079;-73
2023/07/14 01:36:28;;;;;;;5.70;2.72;;;;;;;;;;5028763;28;20128;-74
2023/07/14 01:38:54;;;;;;;5.00;2.45;;;;;;;;;;5019149;28;20029;-74
2023/07/14 01:41:21;;;;;;;4.25;2.72;;;;;;;;;;5031654;28;20207;-74
2023/07/14 01:43:47;;;;;;;6.88;2.97;;;;;;;;;;5033749;28;20495;-73
2023/07/14 01:46:16;;;;;;;6.85;2.42;;;;;;;;;;5028509;28;20065;-74
2023/07/14 01:48:51;;;;;;;6.05;2.30;;;;;;;;;;5041724;28;20025;-73
2023/07/14 01:51:18;;;;;;;5.70;2.50;;;;;;;;;;5025291;28;20519;-74
2023/07/14 01:53:47;;;;;;;5.13;3.03;;;;;;;;;;5022488;28;20025;-74
2023/07/14 01:56:15;;;;;;;4.97;2.72;;;;;;;;;;5024519;28;20044;-74
2023/07/14 01:59:01;;;;;;;3.97;2.40;;;;;;;;;;5019808;28;20504;-74
2023/07/14 02:01:28;;;;;;;4.22;2.78;;;;;;;;;;5029912;28;20654;-75
2023/07/14 02:03:55;;;;;;;3.13;2.40;;;;;;;;;;5039796;28;20022;-74
2023/07/14 02:06:21;;;;;;;5.93;2.40;;;;;;;;;;5040106;28;20080;-75
2023/07/14 02:08:48;;;;;;;7.85;2.80;;;;;;;;;;5031140;28;20129;-74
2023/07/14 02:11:24;;;;;;;4.05;2.53;;;;;;;;;;5033782;28;20017;-73
2023/07/14 02:13:51;;;;;;;5.35;2.92;;;;;;;;;;5025531;28;20022;-74
2023/07/14 02:16:18;;;;;;;4.40;2.50;;;;;;;;;;5039385;28;20021;-73
2023/07/14 02:18:45;;;;;;;7.93;2.70;;;;;;;;;;5028305;28;20022;-76
2023/07/14 02:21:13;;;;;;;4.90;2.58;;;;;;;;;;5026936;28;20034;-74
2023/07/14 02:23:40;;;;;;;4.28;2.72;;;;;;;;;;5025495;28;20037;-75
2023/07/14 02:26:08;;;;;;;7.93;2.63;;;;;;;;;;5028620;28;20025;-76
2023/07/14 02:28:34;;;;;;;5.85;2.50;;;;;;;;;;5025401;28;20598;-77
2023/07/14 02:31:04;;;;;;;5.28;3.20;;;;;;;;;;5025876;28;20056;-75
2023/07/14 02:33:35;;;;;;;4.45;2.67;;;;;;;;;;5022458;28;20025;-76
2023/07/14 02:36:18;;;;;;;6.50;3.15;;;;;;;;;;5036335;28;20428;-72
2023/07/14 02:38:44;;;;;;;4.60;2.97;;;;;;;;;;5022688;28;20048;-74
2023/07/14 02:41:30;;;;;;;5.47;2.90;;;;;;;;;;5028886;28;20029;-73
2023/07/14 02:44:02;;;;;;;7.05;3.17;;;;;;;;;;5028834;28;20036;-74
2023/07/14 02:46:43;;;;;;;4.60;2.58;;;;;;;;;;5029547;28;20535;-73
2023/07/14 02:49:09;;;;;;;4.30;2.72;;;;;;;;;;5030753;28;20041;-74
2023/07/14 02:51:36;;;;;;;5.43;3.45;;;;;;;;;;5026358;28;20523;-74
2023/07/14 02:54:03;;;;;;;4.85;2.75;;;;;;;;;;5027695;28;20480;-74
2023/07/14 02:56:30;;;;;;;6.75;2.60;;;;;;;;;;5029872;28;20122;-73
2023/07/14 02:58:56;;;;;;;4.50;2.80;;;;;;;;;;5030816;28;20025;-74
2023/07/14 03:01:23;;;;;;;4.07;3.10;;;;;;;;;;5027765;28;20029;-74
2023/07/14 03:03:50;;;;;;;5.28;3.97;;;;;;;;;;5029999;28;20130;-73
2023/07/14 03:06:18;;;;;;;6.15;2.78;;;;;;;;;;5028396;28;20163;-74
2023/07/14 03:08:44;;;;;;;3.60;2.70;;;;;;;;;;5030581;28;20041;-74
2023/07/14 03:11:10;;;;;;;6.07;3.65;;;;;;;;;;5025021;28;20033;-74
2023/07/14 03:13:37;;;;;;;5.30;3.00;;;;;;;;;;5022796;28;21431;-74
2023/07/14 03:16:03;;;;;;;6.05;2.85;;;;;;;;;;5030110;28;20026;-73
2023/07/14 03:18:29;;;;;;;5.63;3.40;;;;;;;;;;5023052;28;20337;-74
2023/07/14 03:20:56;;;;;;;6.22;2.65;;;;;;;;;;5023479;28;20491;-74
2023/07/14 03:23:22;;;;;;;3.33;2.85;;;;;;;;;;5034354;28;20056;-74
2023/07/14 03:25:53;;;;;;;4.68;2.70;;;;;;;;;;5027906;28;20033;-74
2023/07/14 03:28:19;;;;;;;3.42;2.95;;;;;;;;;;5034607;28;20476;-74
2023/07/14 03:30:45;;;;;;;3.30;2.72;;;;;;;;;;5031367;28;20026;-74
2023/07/14 03:33:11;;;;;;;4.88;2.47;;;;;;;;;;5036234;28;20025;-74
2023/07/14 03:35:37;;;;;;;4.35;2.95;;;;;;;;;;5031987;28;20652;-74
2023/07/14 03:38:04;;;;;;;4.80;2.58;;;;;;;;;;5038870;28;20032;-75
2023/07/14 03:40:30;;;;;;;4.82;2.40;;;;;;;;;;5030878;28;20038;-74
2023/07/14 03:42:57;;;;;;;4.93;2.30;;;;;;;;;;5028583;28;20475;-74
2023/07/14 03:45:23;;;;;;;3.40;2.70;;;;;;;;;;5031442;28;20237;-74
2023/07/14 03:47:53;;;;;;;4.65;2.70;;;;;;;;;;5031128;28;20030;-74
2023/07/14 03:50:19;;;;;;;4.68;3.17;;;;;;;;;;5030310;28;20476;-74
2023/07/14 03:52:45;;;;;;;4.90;2.88;;;;;;;;;;5030834;28;20036;-73
2023/07/14 03:55:12;;;;;;;8.27;3.15;;;;;;;;;;5033755;28;20384;-73
2023/07/14 03:57:39;;;;;;;3.28;2.60;;;;;;;;;;5029439;28;20167;-73
2023/07/14 04:00:12;;;;;;;4.82;2.75;;;;;;;;;;5045146;28;20041;-74
2023/07/14 04:02:38;;;;;;;3.83;2.80;;;;;;;;;;5032098;28;20421;-74
2023/07/14 04:05:07;;;;;;;8.20;2.80;;;;;;;;;;5043576;28;20506;-74
2023/07/14 04:07:34;;;;;;;4.25;2.63;;;;;;;;;;5033307;28;20022;-74
2023/07/14 04:10:00;;;;;;;5.50;3.88;;;;;;;;;;5035008;28;20029;-73
2023/07/14 04:12:27;;;;;;;3.90;2.70;;;;;;;;;;5023814;28;20093;-74
2023/07/14 04:14:53;;;;;;;5.25;2.92;;;;;;;;;;5022745;28;20026;-74
2023/07/14 04:17:19;;;;;;;5.35;2.50;;;;;;;;;;5031353;28;20079;-73
2023/07/14 04:19:45;;;;;;;4.03;2.63;;;;;;;;;;5040580;28;20028;-74
2023/07/14 04:22:11;;;;;;;5.72;2.55;;;;;;;;;;5030074;28;20030;-74
2023/07/14 04:24:38;;;;;;;3.13;2.50;;;;;;;;;;5032190;28;20030;-74
2023/07/14 04:27:04;;;;;;;6.47;2.80;;;;;;;;;;5031183;28;20487;-75
2023/07/14 04:29:30;;;;;;;5.10;3.15;;;;;;;;;;5028947;28;20113;-73
2023/07/14 04:31:58;;;;;;;3.28;2.55;;;;;;;;;;5029632;28;20083;-73
2023/07/14 04:34:27;;;;;;;4.88;3.40;;;;;;;;;;5028918;28;20048;-76
2023/07/14 04:36:53;;;;;;;8.35;3.35;;;;;;;;;;5027991;28;20100;-74
2023/07/14 04:39:23;;;;;;;4.75;2.75;;;;;;;;;;5033101;28;20039;-74
2023/07/14 04:41:50;;;;;;;3.90;2.55;;;;;;;;;;5024764;28;20036;-74
2023/07/14 04:44:17;;;;;;;5.43;2.70;;;;;;;;;;5029333;28;20128;-74
2023/07/14 04:46:44;;;;;;;3.30;2.70;;;;;;;;;;5029921;28;20037;-74
2023/07/14 04:49:11;;;;;;;3.88;2.80;;;;;;;;;;5038417;28;20057;-74
2023/07/14 04:51:38;;;;;;;5.75;3.20;;;;;;;;;;5032789;28;20029;-74
2023/07/14 04:54:05;;;;;;;5.32;2.85;;;;;;;;;;5027136;28;20013;-74
2023/07/14 04:56:33;;;;;;;4.38;2.78;;;;;;;;;;5044520;28;20031;-74
2023/07/14 04:58:59;;;;;;;5.50;2.85;;;;;;;;;;5031673;28;20030;-74
2023/07/14 05:01:27;;;;;;;5.78;2.70;;;;;;;;;;5034036;28;20561;-74
2023/07/14 05:03:53;;;;;;;5.65;2.80;;;;;;;;;;5042938;28;20036;-73
2023/07/14 05:06:20;;;;;;;7.28;2.75;;;;;;;;;;5037418;28;20546;-74
2023/07/14 05:08:49;;;;;;;4.18;2.83;;;;;;;;;;5032082;28;20033;-74
2023/07/14 05:11:15;;;;;;;5.28;3.20;;;;;;;;;;5033153;28;20384;-74
2023/07/14 05:13:42;;;;;;;4.22;2.85;;;;;;;;;;5041827;28;20028;-75
2023/07/14 05:16:08;;;;;;;8.02;3.20;;;;;;;;;;5036583;28;20024;-74
2023/07/14 05:18:34;;;;;;;4.18;3.35;;;;;;;;;;5024748;28;20038;-75
2023/07/14 05:21:01;;;;;;;4.78;3.10;;;;;;;;;;5029668;28;20040;-75
2023/07/14 05:23:28;;;;;;;4.80;3.08;;;;;;;;;;5026416;28;20033;-75
2023/07/14 05:25:55;;;;;;;4.15;2.90;;;;;;;;;;5037368;28;20029;-74
2023/07/14 05:28:21;;;;;;;5.03;3.60;;;;;;;;;;5044331;28;20033;-74
2023/07/14 05:30:47;;;;;;;7.22;3.05;;;;;;;;;;5036003;28;20093;-73
2023/07/14 05:33:16;;;;;;;5.43;3.22;;;;;;;;;;5035551;28;20026;-74
2023/07/14 05:35:42;;;;;;;10.05;3.42;;;;;;;;;;5038006;28;20022;-73
2023/07/14 05:38:08;;;;;;;6.07;2.85;;;;;;;;;;5036499;28;20025;-73
2023/07/14 05:40:35;;;;;;;12.10;4.32;;;;;;;;;;5032995;28;20057;-73
2023/07/14 05:43:01;;;;;;;3.85;3.20;;;;;;;;;;5029424;28;20570;-73
2023/07/14 05:45:27;;;;;;;5.88;3.50;;;;;;;;;;5038375;28;20025;-73
2023/07/14 05:47:54;;;;;;;8.27;3.22;;;;;;;;;;5031843;28;20034;-73
2023/07/14 05:50:20;;;;;;;4.60;3.80;;;;;;;;;;5050052;28;20088;-73
2023/07/14 05:52:46;;;;;;;4.47;3.35;;;;;;;;;;5028783;28;20025;-74
2023/07/14 05:55:13;;;;;;;4.88;3.58;;;;;;;;;;5026998;28;20036;-73
2023/07/14 05:57:39;;;;;;;3.92;3.10;;;;;;;;;;5028401;28;20072;-74
2023/07/14 06:00:12;;;;;;;9.63;3.17;;;;;;;;;;5029994;28;20105;-74
2023/07/14 06:02:39;;;;;;;6.45;3.60;;;;;;;;;;5026797;28;20025;-74
2023/07/14 06:05:06;;;;;;;6.18;3.25;;;;;;;;;;5024704;28;20451;-74
2023/07/14 06:07:32;;;;;;;3.72;2.80;;;;;;;;;;5027361;28;20059;-74
2023/07/14 06:09:58;;;;;;;6.80;3.03;;;;;;;;;;5026898;28;20028;-75
2023/07/14 06:12:25;;;;;;;5.00;3.08;;;;;;;;;;5022036;28;20064;-74
2023/07/14 06:14:51;;;;;;;4.32;3.88;;;;;;;;;;5045342;28;20398;-74
2023/07/14 06:17:18;;;;;;;4.15;3.15;;;;;;;;;;5028664;28;20021;-73
2023/07/14 06:19:44;;;;;;;5.90;2.97;;;;;;;;;;5037409;28;20034;-73
2023/07/14 06:22:11;;;;;;;7.72;2.65;;;;;;;;;;5027464;28;20450;-74
2023/07/14 06:24:37;;;;;;;2.78;2.08;;;;;;;;;;5033117;28;20052;-75
2023/07/14 06:27:05;;;;;;;2.50;2.00;;;;;;;;;;5028102;28;20151;-74
2023/07/14 06:29:32;;;;;;;3.15;1.90;;;;;;;;;;5029973;28;20034;-73
2023/07/14 06:31:59;;;;;;;2.10;1.70;;;;;;;;;;5026822;28;20047;-74
2023/07/14 06:34:25;;;;;;;4.90;2.20;;;;;;;;;;5025080;28;20029;-74
2023/07/14 06:36:51;;;;;;;3.53;2.20;;;;;;;;;;5032250;28;20531;-74
2023/07/14 06:39:18;;;;;;;3.22;2.47;;;;;;;;;;5016722;28;20116;-74
2023/07/14 06:41:46;;;;;;;3.88;2.95;;;;;;;;;;5022029;28;20033;-74
2023/07/14 06:44:12;;;;;;;2.55;1.85;;;;;;;;;;5027285;28;20082;-73
2023/07/14 06:46:38;;;;;;;2.42;2.10;;;;;;;;;;5026401;28;20490;-75
2023/07/14 06:49:05;;;;;;;2.97;2.17;;;;;;;;;;5027742;28;20033;-73
2023/07/14 06:51:32;;;;;;;2.25;1.80;;;;;;;;;;5023602;28;20077;-75
2023/07/14 06:53:58;;;;;;;3.47;2.45;;;;;;;;;;5028738;28;20444;-74
2023/07/14 06:56:24;;;;;;;3.03;1.88;;;;;;;;;;5026114;28;20065;-74
2023/07/14 06:58:51;;;;;;;2.17;1.85;;;;;;;;;;5025803;28;20085;-74
2023/07/14 07:01:17;;;;;;;3.95;1.90;;;;;;;;;;5027936;28;20170;-74
2023/07/14 07:03:43;;;;;;;2.10;1.90;;;;;;;;;;5022259;28;20270;-74
2023/07/14 07:06:10;;;;;;;4.45;1.80;;;;;;;;;;5018788;28;20045;-74
2023/07/14 07:08:36;;;;;;;2.05;1.85;;;;;;;;;;5017739;28;20038;-75
2023/07/14 07:11:03;;;;;;;2.15;1.67;;;;;;;;;;5018671;28;20037;-75
2023/07/14 07:13:29;;;;;;;2.40;2.00;;;;;;;;;;5018813;28;20018;-74
2023/07/14 07:15:55;;;;;;;4.97;2.20;;;;;;;;;;5025719;28;20064;-75
2023/07/14 07:18:25;;;;;;;2.45;1.70;;;;;;;;;;5023349;28;20033;-74
2023/07/14 07:20:52;;;;;;;2.60;1.90;;;;;;;;;;5028494;28;20025;-75
2023/07/14 07:23:18;;;;;;;2.35;1.92;;;;;;;;;;5031842;28;20025;-74
2023/07/14 07:25:51;;;;;;;1.80;1.70;;;;;;;;;;5049106;28;20063;-74
2023/07/14 07:28:18;;;;;;;2.10;1.90;;;;;;;;;;5040576;28;20084;-74
2023/07/14 07:30:45;;;;;;;2.30;2.00;;;;;;;;;;5031442;28;20044;-73
2023/07/14 07:33:12;;;;;;;2.10;1.77;;;;;;;;;;5026868;28;20052;-74
2023/07/14 07:35:39;;;;;;;2.25;1.90;;;;;;;;;;5029409;28;20528;-75
2023/07/14 07:38:05;;;;;;;3.58;2.20;;;;;;;;;;5030165;28;20531;-74
2023/07/14 07:40:34;;;;;;;7.15;2.50;;;;;;;;;;5029048;28;20076;-74
2023/07/14 07:43:01;;;;;;;3.35;2.15;;;;;;;;;;5033958;28;20033;-74
2023/07/14 07:45:27;;;;;;;3.50;2.20;;;;;;;;;;5029506;28;20029;-74
2023/07/14 07:47:54;;;;;;;2.78;2.10;;;;;;;;;;5023456;28;20518;-74
2023/07/14 07:50:20;;;;;;;2.15;1.95;;;;;;;;;;5028273;28;20030;-74
2023/07/14 07:52:46;;;;;;;3.20;2.20;;;;;;;;;;5029645;28;20048;-74
2023/07/14 07:55:12;;;;;;;2.58;2.10;;;;;;;;;;5025219;28;20083;-74
2023/07/14 07:57:40;;;;;;;3.45;2.50;;;;;;;;;;5024736;28;20029;-73
2023/07/14 08:00:07;;;;;;;2.80;2.40;;;;;;;;;;5023873;28;20021;-74
2023/07/14 08:02:35;;;;;;;2.97;2.25;;;;;;;;;;5031935;28;20026;-74
2023/07/14 08:05:02;;;;;;;2.65;2.22;;;;;;;;;;5027087;28;20113;-74
2023/07/14 08:07:28;;;;;;;3.85;2.50;;;;;;;;;;5022167;28;20990;-74
2023/07/14 08:09:54;;;;;;;4.90;2.28;;;;;;;;;;5023438;28;20049;-76
2023/07/14 08:12:21;;;;;;;3.08;2.42;;;;;;;;;;5031461;28;20533;-74
2023/07/14 08:14:54;;;;;;;4.13;2.38;;;;;;;;;;5025666;28;20057;-76
2023/07/14 08:17:24;;;;;;;3.72;2.30;;;;;;;;;;5033242;28;20028;-76
2023/07/14 08:19:51;;;;;;;3.20;2.35;;;;;;;;;;5025182;28;20025;-75
2023/07/14 08:22:17;;;;;;;2.70;2.20;;;;;;;;;;5020032;28;20044;-75
2023/07/14 08:24:45;;;;;;;4.97;2.70;;;;;;;;;;5026672;28;20079;-76
2023/07/14 08:27:14;;;;;;;3.42;2.35;;;;;;;;;;5022474;28;20025;-76
2023/07/14 08:29:41;;;;;;;3.33;2.70;;;;;;;;;;5024278;28;20080;-76
2023/07/14 08:32:10;;;;;;;4.68;2.45;;;;;;;;;;5020116;28;20040;-74
2023/07/14 08:34:37;;;;;;;4.15;2.10;;;;;;;;;;5027628;28;20022;-74
2023/07/14 08:37:04;;;;;;;2.50;2.30;;;;;;;;;;5030061;28;20025;-74
2023/07/14 08:39:32;;;;;;;2.47;2.00;;;;;;;;;;5031162;28;20607;-76
2023/07/14 08:42:00;;;;;;;3.25;2.13;;;;;;;;;;5036997;28;20035;-74
2023/07/14 08:44:38;;;;;;;3.53;2.53;;;;;;;;;;5043398;28;20060;-75
2023/07/14 08:47:17;;;;;;;4.63;2.28;;;;;;;;;;5041583;28;20036;-75
2023/07/14 08:49:53;;;;;;;2.42;2.10;;;;;;;;;;5039904;28;20036;-74
2023/07/14 08:52:23;;;;;;;2.00;1.80;;;;;;;;;;5035427;28;20099;-74
2023/07/14 08:54:52;;;;;;;3.85;2.10;;;;;;;;;;5026293;28;20029;-74
2023/07/14 08:57:20;;;;;;;2.38;2.00;;;;;;;;;;5031056;28;20137;-73
2023/07/14 08:59:48;;;;;;;2.40;2.10;;;;;;;;;;5034268;28;20341;-75
2023/07/14 09:02:20;;;;;;;4.13;2.00;;;;;;;;;;5027171;28;20033;-75
2023/07/14 09:04:49;;;;;;;2.83;2.20;;;;;;;;;;5025854;28;20088;-74
2023/07/14 09:07:16;;;;;;;4.03;2.03;;;;;;;;;;5025709;28;20403;-75
2023/07/14 09:09:43;;;;;;;2.95;2.30;;;;;;;;;;5027383;28;20029;-74
2023/07/14 09:12:09;;;;;;;3.33;2.25;;;;;;;;;;5026138;28;20057;-74
2023/07/14 09:14:47;;;;;;;1.98;1.70;;;;;;;;;;5028470;28;20040;-75
2023/07/14 09:17:22;;;;;;;2.63;2.08;;;;;;;;;;5031849;28;20025;-76
2023/07/14 09:20:07;;;;;;;1.95;1.77;;;;;;;;;;5031115;28;20107;-75
2023/07/14 09:22:39;;;;;;;3.20;2.00;;;;;;;;;;5038712;28;20033;-75
2023/07/14 09:25:22;;;;;;;3.05;2.20;;;;;;;;;;5034166;28;20368;-76
2023/07/14 09:27:50;;;;;;;3.92;2.00;;;;;;;;;;5033190;28;20384;-76
2023/07/14 09:30:23;;;;;;;2.40;2.20;;;;;;;;;;5028467;28;20504;-77
2023/07/14 09:32:51;;;;;;;3.67;2.38;;;;;;;;;;5030965;28;20048;-76
2023/07/14 09:35:18;;;;;;;3.83;2.05;;;;;;;;;;5028446;28;20779;-76
2023/07/14 09:37:53;;;;;;;4.90;2.50;;;;;;;;;;5037451;28;20488;-75
2023/07/14 09:40:25;;;;;;;2.95;2.20;;;;;;;;;;5033581;28;20093;-75
2023/07/14 09:42:53;;;;;;;6.07;2.25;;;;;;;;;;5042149;28;20139;-77
2023/07/14 09:45:21;;;;;;;5.28;2.30;;;;;;;;;;5031461;28;20034;-73
2023/07/14 09:47:48;;;;;;;5.47;3.03;;;;;;;;;;5029294;28;20029;-73
2023/07/14 09:50:16;;;;;;;5.47;2.20;;;;;;;;;;5031648;28;20367;-74
2023/07/14 09:52:49;;;;;;;3.47;2.30;;;;;;;;;;5027297;28;20017;-75
2023/07/14 09:55:15;;;;;;;3.90;2.13;;;;;;;;;;5028654;28;20029;-74
2023/07/14 09:57:43;;;;;;;4.57;2.40;;;;;;;;;;5024091;28;20349;-74
2023/07/14 10:00:20;;;;;;;3.08;2.28;;;;;;;;;;5019678;28;20382;-74
2023/07/14 10:02:52;;;;;;;6.93;2.47;;;;;;;;;;5027426;28;20109;-75
2023/07/14 10:05:21;;;;;;;5.40;2.58;;;;;;;;;;5031571;28;20037;-75
2023/07/14 10:07:48;;;;;;;4.57;3.15;;;;;;;;;;5026529;28;20516;-74
2023/07/14 10:10:19;;;;;;;4.25;2.70;;;;;;;;;;5024561;28;20124;-74
2023/07/14 10:12:46;;;;;;;3.30;2.60;;;;;;;;;;5024792;28;20042;-74
2023/07/14 10:15:36;;;;;;;9.25;3.10;;;;;;;;;;5019402;28;20347;-74
2023/07/14 10:18:02;;;;;;;6.35;2.92;;;;;;;;;;5012920;28;20515;-74
2023/07/14 10:20:31;;;;;;;3.58;2.35;;;;;;;;;;5024538;28;20322;-73
2023/07/14 10:22:58;;;;;;;8.68;3.03;;;;;;;;;;5033776;28;20056;-74
2023/07/14 10:25:25;;;;;;;5.72;2.67;;;;;;;;;;5042694;28;20065;-76
2023/07/14 10:28:12;;;;;;;3.20;2.47;;;;;;;;;;5024632;28;20033;-75
2023/07/14 10:30:48;;;;;;;7.15;2.80;;;;;;;;;;5029760;28;20450;-75
2023/07/14 10:33:25;;;;;;;7.45;2.65;;;;;;;;;;5032556;28;20044;-76
2023/07/14 10:35:57;;;;;;;3.88;2.95;;;;;;;;;;5032063;28;20026;-75
2023/07/14 10:38:36;;;;;;;4.28;3.00;;;;;;;;;;5031271;28;20053;-73
2023/07/14 10:41:03;;;;;;;6.50;2.90;;;;;;;;;;5026585;28;20030;-75
2023/07/14 10:43:30;;;;;;;4.88;3.42;;;;;;;;;;5027042;28;20029;-75
2023/07/14 10:45:57;;;;;;;5.75;3.15;;;;;;;;;;5034929;28;20033;-76
2023/07/14 10:48:27;;;;;;;6.25;3.40;;;;;;;;;;5034465;28;20102;-76
2023/07/14 10:50:53;;;;;;;3.90;2.80;;;;;;;;;;5024820;28;20037;-75
2023/07/14 10:53:22;;;;;;;6.18;2.75;;;;;;;;;;5028060;28;20057;-74
2023/07/14 10:55:50;;;;;;;5.85;2.60;;;;;;;;;;5036301;28;20033;-75
2023/07/14 10:58:24;;;;;;;4.60;3.38;;;;;;;;;;5032253;28;20390;-74
2023/07/14 11:00:56;;;;;;;3.60;2.63;;;;;;;;;;5033606;28;20127;-74
2023/07/14 11:03:22;;;;;;;3.80;2.70;;;;;;;;;;5024928;28;20033;-76
2023/07/14 11:05:57;;;;;;;4.68;2.75;;;;;;;;;;5030090;28;20065;-74
2023/07/14 11:08:23;;;;;;;;;;;;;;;;;;5026918;28;20415;-76
2023/07/14 11:10:52;;;;;;;6.47;3.00;;;;;;;;;;5025335;28;19970;-74
2023/07/14 11:13:33;;;;;;;4.60;2.75;;;;;;;;;;5024563;28;20065;-74
2023/07/14 11:16:07;;;;;;;6.53;3.70;;;;;;;;;;5024309;28;20483;-75
2023/07/14 11:18:40;;;;;;;5.28;2.83;;;;;;;;;;5023911;28;20029;-75
2023/07/14 11:21:12;;;;;;;5.95;3.47;;;;;;;;;;5027572;28;20029;-75
2023/07/14 11:23:47;;;;;;;3.63;2.28;;;;;;;;;;5019045;28;20030;-75
2023/07/14 11:26:14;;;;;;;;;;;;;;;;;;5024916;28;20037;-75
2023/07/14 11:28:43;;;;;;;4.68;2.28;;;;;;;;;;5024209;28;19925;-76
2023/07/14 11:31:24;;;;;;;3.80;2.78;;;;;;;;;;5023343;28;20037;-75
2023/07/14 11:34:14;;;;;;;5.97;2.58;;;;;;;;;;5031602;28;20040;-75
2023/07/14 11:36:50;;;;;;;5.70;2.65;;;;;;;;;;5025925;28;20087;-75
2023/07/14 11:39:35;;;;;;;4.75;2.58;;;;;;;;;;5024863;28;20100;-75
2023/07/14 11:42:02;;;;;;;6.22;3.65;;;;;;;;;;5024838;28;20120;-76
2023/07/14 11:44:28;;;;;;;8.15;2.92;;;;;;;;;;5028432;28;20033;-75
2023/07/14 11:46:54;;;;;;;4.72;2.92;;;;;;;;;;5020882;28;20029;-76
2023/07/14 11:49:40;;;;;;;4.38;2.90;;;;;;;;;;5024426;28;20487;-75
2023/07/14 11:52:11;;;;;;;7.03;2.70;;;;;;;;;;5020690;28;20155;-76
2023/07/14 11:54:42;;;;;;;2.80;2.42;;;;;;;;;;5024116;28;20029;-76
2023/07/14 11:57:15;;;;;;;4.50;2.55;;;;;;;;;;5028631;28;20089;-75
2023/07/14 11:59:53;;;;;;;7.15;2.42;;;;;;;;;;5027797;28;20037;-75
2023/07/14 12:02:31;;;;;;;3.58;2.50;;;;;;;;;;5043738;28;20032;-75
2023/07/14 12:04:59;;;;;;;4.53;2.65;;;;;;;;;;5047387;28;20067;-77
2023/07/14 12:07:25;;;;;;;5.70;3.08;;;;;;;;;;5047839;28;20032;-74
2023/07/14 12:09:59;;;;;;;4.95;2.53;;;;;;;;;;5041842;28;20571;-76
2023/07/14 12:12:26;;;;;;;3.22;2.33;;;;;;;;;;5025503;28;20053;-75
2023/07/14 12:14:52;;;;;;;5.43;2.50;;;;;;;;;;5040402;28;20036;-76
2023/07/14 12:17:37;;;;;;;4.28;1.95;;;;;;;;;;5022682;28;20048;-75
2023/07/14 12:20:15;;;;;;;7.13;2.10;;;;;;;;;;5020818;28;20987;-75
2023/07/14 12:22:41;;;;;;;5.45;2.00;;;;;;;;;;5022060;28;20055;-75
2023/07/14 12:25:11;;;;;;;7.40;2.70;;;;;;;;;;5020665;28;20247;-75
2023/07/14 12:27:39;;;;;;;4.85;2.83;;;;;;;;;;5022511;28;20036;-76
2023/07/14 12:30:20;;;;;;;3.83;2.80;;;;;;;;;;5017828;28;20950;-76
2023/07/14 12:32:46;;;;;;;3.30;2.40;;;;;;;;;;5022769;28;20514;-76
2023/07/14 12:35:17;;;;;;;4.72;2.13;;;;;;;;;;5021608;28;20025;-77
2023/07/14 12:37:43;;;;;;;3.35;1.92;;;;;;;;;;5021425;28;20060;-77
2023/07/14 12:40:18;;;;;;;7.00;2.38;;;;;;;;;;5022164;28;20021;-76
2023/07/14 12:42:44;;;;;;;2.42;1.88;;;;;;;;;;5021993;28;20140;-77
2023/07/14 12:45:16;;;;;;;5.40;2.17;;;;;;;;;;5024297;28;21602;-77
2023/07/14 12:47:44;;;;;;;3.90;2.25;;;;;;;;;;5019693;28;21189;-76
2023/07/14 12:50:15;;;;;;;3.05;2.00;;;;;;;;;;5018843;28;20041;-76
2023/07/14 12:52:42;;;;;;;5.00;2.42;;;;;;;;;;5015525;28;20496;-76
2023/07/14 12:55:12;;;;;;;4.25;2.20;;;;;;;;;;5010013;28;20038;-76
2023/07/14 12:57:39;;;;;;;3.50;2.10;;;;;;;;;;5021089;28;20032;-74
2023/07/14 13:00:28;;;;;;;5.45;2.30;;;;;;;;;;5021067;28;20018;-76
2023/07/14 13:02:55;;;;;;;3.42;2.10;;;;;;;;;;5012944;28;20045;-75
2023/07/14 13:05:21;;;;;;;6.63;2.30;;;;;;;;;;5016461;28;20096;-75
2023/07/14 13:07:49;;;;;;;6.15;2.13;;;;;;;;;;5015776;28;20037;-74
2023/07/14 13:10:28;;;;;;;6.57;2.65;;;;;;;;;;5017301;28;20033;-74
2023/07/14 13:12:55;;;;;;;5.90;2.22;;;;;;;;;;5020946;28;20030;-76
2023/07/14 13:15:25;;;;;;;4.78;2.20;;;;;;;;;;5019552;28;20681;-75
2023/07/14 13:17:51;;;;;;;3.65;2.05;;;;;;;;;;5019682;28;20112;-75
2023/07/14 13:20:20;;;;;;;3.45;2.00;;;;;;;;;;5020722;28;20064;-76
2023/07/14 13:23:04;;;;;;;6.32;2.20;;;;;;;;;;5023827;28;20150;-75
2023/07/14 13:25:30;;;;;;;3.35;2.00;;;;;;;;;;5024049;28;20029;-77
2023/07/14 13:27:56;;;;;;;6.35;2.08;;;;;;;;;;5024559;28;20033;-77
2023/07/14 13:30:31;;;;;;;3.25;2.08;;;;;;;;;;5017336;28;20033;-77
2023/07/14 13:32:58;;;;;;;4.85;2.10;;;;;;;;;;5019584;28;20108;-76
2023/07/14 13:35:25;;;;;;;3.13;2.00;;;;;;;;;;5020288;28;20034;-75
2023/07/14 13:37:57;;;;;;;5.18;2.25;;;;;;;;;;5020111;28;20529;-76
2023/07/14 13:40:26;;;;;;;6.43;2.28;;;;;;;;;;5022286;28;20044;-76
2023/07/14 13:42:58;;;;;;;4.60;2.45;;;;;;;;;;5014553;28;20034;-77
2023/07/14 13:45:31;;;;;;;6.30;2.50;;;;;;;;;;5023286;28;20116;-75
2023/07/14 13:47:57;;;;;;;7.95;2.90;;;;;;;;;;5023335;28;20029;-76
2023/07/14 13:50:23;;;;;;;5.80;2.65;;;;;;;;;;5024661;28;20202;-76
2023/07/14 13:52:49;;;;;;;8.20;2.63;;;;;;;;;;5022918;28;20108;-76
2023/07/14 13:55:20;;;;;;;5.38;2.60;;;;;;;;;;5023512;28;20052;-75
2023/07/14 13:57:47;;;;;;;9.75;2.53;;;;;;;;;;5030945;28;20048;-75
2023/07/14 14:00:14;;;;;;;2.78;1.80;;;;;;;;;;5025628;28;20163;-76
2023/07/14 14:02:45;;;;;;;6.70;2.30;;;;;;;;;;5026888;28;20552;-76
2023/07/14 14:05:27;;;;;;;4.32;2.00;;;;;;;;;;5026569;28;20054;-77
2023/07/14 14:07:53;;;;;;;6.55;2.47;;;;;;;;;;5024015;28;20032;-76
2023/07/14 14:10:24;;;;;;;4.40;2.00;;;;;;;;;;5026833;28;20040;-76
2023/07/14 14:12:51;;;;;;;6.93;2.53;;;;;;;;;;5024477;28;20108;-76
2023/07/14 14:15:19;;;;;;;3.45;1.92;;;;;;;;;;5025236;28;20468;-76
2023/07/14 14:17:48;;;;;;;2.97;1.98;;;;;;;;;;5022540;28;20046;-75
2023/07/14 14:20:17;;;;;;;6.90;2.17;;;;;;;;;;5021224;28;21087;-77
2023/07/14 14:22:43;;;;;;;2.92;2.08;;;;;;;;;;5026530;28;20173;-77
2023/07/14 14:25:16;;;;;;;3.17;2.00;;;;;;;;;;5022070;28;20418;-76
2023/07/14 14:27:43;;;;;;;4.38;1.83;;;;;;;;;;5021324;28;20054;-76
2023/07/14 14:30:09;;;;;;;3.88;1.90;;;;;;;;;;5025718;28;20030;-77
2023/07/14 14:32:37;;;;;;;2.88;2.08;;;;;;;;;;5030296;28;20045;-75
2023/07/14 14:35:17;;;;;;;6.18;3.97;;;;;;;;;;5027835;28;20110;-77
2023/07/14 14:37:43;;;;;;;4.10;2.33;;;;;;;;;;5029214;28;20075;-76
2023/07/14 14:40:12;;;;;;;4.20;1.90;;;;;;;;;;5032431;28;20383;-76
2023/07/14 14:42:38;;;;;;;3.08;1.90;;;;;;;;;;5029564;28;20060;-74
2023/07/14 14:45:06;;;;;;;3.30;2.20;;;;;;;;;;5030914;28;20040;-74
2023/07/14 14:47:32;;;;;;;3.95;1.98;;;;;;;;;;5047283;28;20041;-74
2023/07/14 14:49:58;;;;;;;2.20;1.90;;;;;;;;;;5029244;28;20037;-75
2023/07/14 14:52:24;;;;;;;2.55;1.70;;;;;;;;;;5029208;28;20117;-76
2023/07/14 14:54:50;;;;;;;5.43;2.10;;;;;;;;;;5036073;28;20636;-75